createdAt,value
2022-11-13T00:02:26.993Z,19.57
2022-11-13T00:05:12.906Z,19.63
2022-11-13T00:07:58.404Z,18.83
2022-11-13T00:10:45.570Z,18.95
2022-11-13T00:13:31.381Z,18.67
2022-11-13T00:16:19.156Z,19.00
2022-11-13T00:19:04.995Z,18.05
2022-11-13T00:21:50.827Z,17.90
2022-11-13T00:24:36.763Z,17.73
2022-11-13T00:27:24.066Z,18.83
2022-11-13T00:30:13.759Z,18.00
2022-11-13T00:33:03.755Z,18.02
2022-11-13T00:35:49.584Z,18.27
2022-11-13T00:38:35.656Z,19.50
2022-11-13T00:41:21.426Z,19.02
2022-11-13T00:44:08.901Z,18.57
2022-11-13T00:46:54.499Z,17.85
2022-11-13T00:49:40.420Z,18.27
2022-11-13T00:52:26.365Z,16.77
2022-11-13T00:55:12.257Z,13.80
2022-11-13T00:57:58.233Z,14.37
2022-11-13T01:00:47.111Z,14.95
2022-11-13T01:03:32.890Z,15.75
2022-11-13T01:06:20.854Z,14.32
2022-11-13T01:09:06.705Z,15.85
2022-11-13T01:11:52.635Z,14.47
2022-11-13T01:14:38.596Z,14.35
2022-11-13T01:17:26.088Z,14.18
2022-11-13T01:20:11.984Z,14.70
2022-11-13T01:22:57.479Z,15.02
2022-11-13T01:25:43.430Z,13.70
2022-11-13T01:28:29.563Z,14.82
2022-11-13T01:31:17.700Z,13.90
2022-11-13T01:34:04.516Z,14.75
2022-11-13T01:36:50.693Z,13.80
2022-11-13T01:39:36.393Z,14.37
2022-11-13T01:42:22.108Z,14.25
2022-11-13T01:45:45.908Z,14.48
2022-11-13T01:48:36.473Z,12.95
2022-11-13T01:51:27.640Z,12.98
2022-11-13T01:54:17.643Z,13.10
2022-11-13T01:57:05.399Z,12.32
2022-11-13T01:59:55.323Z,12.80
2022-11-13T02:02:40.848Z,13.48
2022-11-13T02:05:26.795Z,13.45
2022-11-13T02:08:14.081Z,14.13
2022-11-13T02:10:59.942Z,13.50
2022-11-13T02:13:46.646Z,13.43
2022-11-13T02:16:34.450Z,14.15
2022-11-13T02:19:31.459Z,13.13
2022-11-13T02:22:22.722Z,13.63
2022-11-13T02:25:11.680Z,13.02
2022-11-13T02:27:57.708Z,12.82
2022-11-13T02:30:43.446Z,13.57
2022-11-13T02:33:31.764Z,13.63
2022-11-13T02:36:20.039Z,13.20
2022-11-13T02:39:08.966Z,13.15
2022-11-13T02:41:56.121Z,13.07
2022-11-13T02:44:42.089Z,13.68
2022-11-13T02:47:28.364Z,12.68
2022-11-13T02:50:14.791Z,11.83
2022-11-13T02:53:00.897Z,12.00
2022-11-13T02:55:46.463Z,11.57
2022-11-13T02:58:33.897Z,11.60
2022-11-13T03:01:19.982Z,11.27
2022-11-13T03:04:05.733Z,12.50
2022-11-13T03:06:51.548Z,12.90
2022-11-13T03:09:37.322Z,13.20
2022-11-13T03:12:23.475Z,12.77
2022-11-13T03:15:11.139Z,12.90
2022-11-13T03:17:56.905Z,12.17
2022-11-13T03:20:44.093Z,12.15
2022-11-13T03:23:29.745Z,11.82
2022-11-13T03:26:16.908Z,11.35
2022-11-13T03:29:02.923Z,11.07
2022-11-13T03:31:50.224Z,11.67
2022-11-13T03:34:36.377Z,9.38
2022-11-13T03:37:22.104Z,9.85
2022-11-13T03:40:09.035Z,9.93
2022-11-13T03:42:54.602Z,9.43
2022-11-13T03:45:40.592Z,9.73
2022-11-13T03:48:28.042Z,9.05
2022-11-13T03:51:14.127Z,8.95
2022-11-13T03:54:00.291Z,9.45
2022-11-13T03:56:45.800Z,9.45
2022-11-13T03:59:31.725Z,9.17
2022-11-13T04:02:17.661Z,9.48
2022-11-13T04:05:05.563Z,9.30
2022-11-13T04:07:51.594Z,9.38
2022-11-13T04:10:37.407Z,8.52
2022-11-13T04:13:23.218Z,9.07
2022-11-13T04:16:09.305Z,8.95
2022-11-13T04:18:55.207Z,9.45
2022-11-13T04:21:42.247Z,9.48
2022-11-13T04:24:28.082Z,8.60
2022-11-13T04:27:14.029Z,9.00
2022-11-13T04:30:00.042Z,8.23
2022-11-13T04:32:46.186Z,8.48
2022-11-13T04:35:31.966Z,9.27
2022-11-13T04:38:19.214Z,8.98
2022-11-13T04:41:23.951Z,8.73
2022-11-13T04:44:09.622Z,8.55
2022-11-13T04:46:55.465Z,8.82
2022-11-13T04:49:41.590Z,8.10
2022-11-13T04:52:28.511Z,9.07
2022-11-13T04:55:15.579Z,8.60
2022-11-13T04:58:01.458Z,8.30
2022-11-13T05:00:47.209Z,8.63
2022-11-13T05:03:33.171Z,8.77
2022-11-13T05:06:19.091Z,8.85
2022-11-13T05:09:05.004Z,8.63
2022-11-13T05:11:52.395Z,8.07
2022-11-13T05:14:39.856Z,8.40
2022-11-13T05:17:25.434Z,8.27
2022-11-13T05:20:11.980Z,8.25
2022-11-13T05:22:57.821Z,8.63
2022-11-13T05:25:43.698Z,7.97
2022-11-13T05:28:31.143Z,8.68
2022-11-13T05:31:17.219Z,7.95
2022-11-13T05:34:05.932Z,8.13
2022-11-13T05:36:51.873Z,8.77
2022-11-13T05:39:37.652Z,8.57
2022-11-13T05:42:23.568Z,8.65
2022-11-13T05:45:10.989Z,8.60
2022-11-13T05:47:57.544Z,9.07
2022-11-13T05:50:43.578Z,8.77
2022-11-13T05:53:29.581Z,8.57
2022-11-13T05:56:18.155Z,8.95
2022-11-13T05:59:04.943Z,8.98
2022-11-13T06:01:52.100Z,9.80
2022-11-13T06:04:37.980Z,10.87
2022-11-13T06:07:23.889Z,11.18
2022-11-13T06:10:09.879Z,12.00
2022-11-13T06:12:55.568Z,11.05
2022-11-13T06:15:41.285Z,11.70
2022-11-13T06:18:29.029Z,11.67
2022-11-13T06:21:17.084Z,11.77
2022-11-13T06:24:02.900Z,12.73
2022-11-13T06:26:48.891Z,13.65
2022-11-13T06:29:34.771Z,13.75
2022-11-13T06:32:20.767Z,14.50
2022-11-13T06:35:08.640Z,13.60
2022-11-13T06:37:54.690Z,14.00
2022-11-13T06:40:40.666Z,13.45
2022-11-13T06:43:26.783Z,13.77
2022-11-13T06:46:13.894Z,12.87
2022-11-13T06:48:59.918Z,12.55
2022-11-13T06:51:47.386Z,12.23
2022-11-13T06:54:32.981Z,12.27
2022-11-13T06:57:18.994Z,12.35
2022-11-13T07:00:06.396Z,12.47
2022-11-13T07:02:52.024Z,11.35
2022-11-13T07:05:38.033Z,9.95
2022-11-13T07:08:25.160Z,10.55
2022-11-13T07:11:12.324Z,10.32
2022-11-13T07:13:57.905Z,8.83
2022-11-13T07:17:08.081Z,9.38
2022-11-13T07:19:49.046Z,9.45
2022-11-13T07:22:34.830Z,9.68
2022-11-13T07:25:22.041Z,9.13
2022-11-13T07:28:07.748Z,10.37
2022-11-13T07:30:53.564Z,9.77
2022-11-13T07:33:39.374Z,10.93
2022-11-13T07:36:25.235Z,9.82
2022-11-13T07:39:11.167Z,9.77
2022-11-13T07:41:58.283Z,9.77
2022-11-13T07:44:59.412Z,10.15
2022-11-13T07:47:45.134Z,10.30
2022-11-13T07:50:32.961Z,10.63
2022-11-13T07:53:19.934Z,10.43
2022-11-13T07:56:06.459Z,10.30
2022-11-13T07:58:53.593Z,10.65
2022-11-13T08:01:39.513Z,11.00
2022-11-13T08:04:25.564Z,9.43
2022-11-13T08:07:12.719Z,10.45
2022-11-13T08:09:58.570Z,11.13
2022-11-13T08:12:44.560Z,11.30
2022-11-13T08:15:32.931Z,11.10
2022-11-13T08:18:18.595Z,11.00
2022-11-13T08:21:08.069Z,11.20
2022-11-13T08:23:57.872Z,11.47
2022-11-13T08:26:43.739Z,10.50
2022-11-13T08:29:30.041Z,9.48
2022-11-13T08:32:18.391Z,11.35
2022-11-13T08:35:04.254Z,10.55
2022-11-13T08:37:50.001Z,10.37
2022-11-13T08:40:35.935Z,11.77
2022-11-13T08:43:21.817Z,11.68
2022-11-13T08:46:07.666Z,11.77
2022-11-13T08:48:54.934Z,12.25
2022-11-13T08:51:40.776Z,9.43
2022-11-13T08:54:26.676Z,10.75
2022-11-13T08:57:12.561Z,11.18
2022-11-13T08:59:58.504Z,11.55
2022-11-13T09:02:44.801Z,11.50
2022-11-13T09:05:31.712Z,10.70
2022-11-13T09:08:17.328Z,10.93
2022-11-13T09:11:04.861Z,11.05
2022-11-13T09:13:53.279Z,11.20
2022-11-13T09:16:39.444Z,11.65
2022-11-13T09:19:25.476Z,10.87
2022-11-13T09:22:12.740Z,11.35
2022-11-13T09:24:58.609Z,11.88
2022-11-13T09:27:51.416Z,11.65
2022-11-13T09:30:38.904Z,10.80
2022-11-13T09:33:24.797Z,10.70
2022-11-13T09:36:11.760Z,10.45
2022-11-13T09:39:00.724Z,10.93
2022-11-13T09:41:49.929Z,11.13
2022-11-13T09:44:41.492Z,10.90
2022-11-13T09:47:30.469Z,10.57
2022-11-13T09:50:21.955Z,10.05
2022-11-13T09:53:11.044Z,10.38
2022-11-13T09:56:04.856Z,10.40
2022-11-13T09:58:59.522Z,10.20
2022-11-13T10:01:53.639Z,10.93
2022-11-13T10:04:53.274Z,10.32
2022-11-13T10:07:44.437Z,10.88
2022-11-13T10:10:50.735Z,9.52
2022-11-13T10:13:45.799Z,9.38
2022-11-13T10:16:35.519Z,8.63
2022-11-13T10:19:27.293Z,8.80
2022-11-13T10:22:35.308Z,9.43
2022-11-13T10:25:22.870Z,9.40
2022-11-13T10:28:43.226Z,10.30
2022-11-13T10:31:21.423Z,9.33
2022-11-13T10:34:07.516Z,9.32
2022-11-13T10:37:13.998Z,8.80
2022-11-13T10:39:59.801Z,9.02
2022-11-13T10:42:45.575Z,9.13
2022-11-13T10:45:32.040Z,9.63
2022-11-13T10:48:27.530Z,9.25
2022-11-13T10:51:24.433Z,9.23
2022-11-13T10:54:22.952Z,9.40
2022-11-13T10:57:23.039Z,9.98
2022-11-13T11:00:23.923Z,8.93
2022-11-13T11:03:14.030Z,9.35
2022-11-13T11:06:02.912Z,9.35
2022-11-13T11:08:48.887Z,9.20
2022-11-13T11:11:53.517Z,9.38
2022-11-13T11:14:45.549Z,9.23
2022-11-13T11:17:41.634Z,9.57
2022-11-13T11:20:38.450Z,8.98
2022-11-13T11:23:33.175Z,8.82
2022-11-13T11:26:23.792Z,8.60
2022-11-13T11:29:17.650Z,9.10
2022-11-13T11:32:15.491Z,8.48
2022-11-13T11:35:08.267Z,8.55
2022-11-13T11:38:08.616Z,8.48
2022-11-13T11:41:01.066Z,8.27
2022-11-13T11:43:51.044Z,9.13
2022-11-13T11:46:36.767Z,9.35
2022-11-13T11:49:25.496Z,9.05
2022-11-13T11:52:26.260Z,9.50
2022-11-13T11:55:29.187Z,9.60
2022-11-13T11:58:31.180Z,8.83
2022-11-13T12:01:28.676Z,9.43
2022-11-13T12:04:23.483Z,8.77
2022-11-13T12:07:27.286Z,9.68
2022-11-13T12:10:24.477Z,8.82
2022-11-13T12:13:25.223Z,9.73
2022-11-13T12:16:19.826Z,9.45
2022-11-13T12:19:19.430Z,9.05
2022-11-13T12:22:16.128Z,9.88
2022-11-13T12:25:13.918Z,9.32
2022-11-13T12:28:10.853Z,10.20
2022-11-13T12:31:05.543Z,9.27
2022-11-13T12:34:01.727Z,9.60
2022-11-13T12:36:48.563Z,9.70
2022-11-13T12:39:43.270Z,10.27
2022-11-13T12:42:34.463Z,10.03
2022-11-13T12:45:26.271Z,10.05
2022-11-13T12:48:26.862Z,9.88
2022-11-13T12:51:14.973Z,10.15
2022-11-13T12:54:00.628Z,10.45
2022-11-13T12:56:46.456Z,10.27
2022-11-13T12:59:35.489Z,11.30
2022-11-13T13:02:33.320Z,10.32
2022-11-13T13:05:33.637Z,10.07
2022-11-13T13:08:48.626Z,10.25
2022-11-13T13:11:43.823Z,9.73
2022-11-13T13:14:50.788Z,9.70
2022-11-13T13:17:36.453Z,10.20
2022-11-13T13:20:33.588Z,10.23
2022-11-13T13:23:28.236Z,10.20
2022-11-13T13:26:19.871Z,10.03
2022-11-13T13:29:16.965Z,10.32
2022-11-13T13:32:20.735Z,10.23
2022-11-13T13:35:14.772Z,9.02
2022-11-13T13:38:14.992Z,9.48
2022-11-13T13:41:17.838Z,9.37
2022-11-13T13:44:24.075Z,9.63
2022-11-13T13:47:17.018Z,9.82
2022-11-13T13:50:05.977Z,9.43
2022-11-13T13:52:55.939Z,9.60
2022-11-13T13:55:48.550Z,9.83
2022-11-13T13:58:36.703Z,9.30
2022-11-13T14:01:30.437Z,9.00
2022-11-13T14:04:19.421Z,9.70
2022-11-13T14:07:18.525Z,9.65
2022-11-13T14:10:06.732Z,9.17
2022-11-13T14:12:54.317Z,9.43
2022-11-13T14:15:40.212Z,9.30
2022-11-13T14:18:27.279Z,9.00
2022-11-13T14:21:17.450Z,9.50
2022-11-13T14:24:03.615Z,9.23
2022-11-13T14:26:51.447Z,9.10
2022-11-13T14:29:44.280Z,9.18
2022-11-13T14:32:33.689Z,9.40
2022-11-13T14:35:21.869Z,9.70
2022-11-13T14:38:19.235Z,9.50
2022-11-13T14:41:05.333Z,8.85
2022-11-13T14:43:52.479Z,8.73
2022-11-13T14:46:44.420Z,9.13
2022-11-13T14:49:31.812Z,9.52
2022-11-13T14:52:22.253Z,10.07
2022-11-13T14:55:20.981Z,10.13
2022-11-13T14:58:06.741Z,9.82
2022-11-13T15:00:52.863Z,10.73
2022-11-13T15:03:39.961Z,10.75
2022-11-13T15:06:27.299Z,10.23
2022-11-13T15:09:15.439Z,10.25
2022-11-13T15:12:01.293Z,9.95
2022-11-13T15:14:47.126Z,10.35
2022-11-13T15:17:33.285Z,10.27
2022-11-13T15:20:24.164Z,10.60
2022-11-13T15:23:13.587Z,10.27
2022-11-13T15:25:59.118Z,9.93
2022-11-13T15:28:45.162Z,10.50
2022-11-13T15:31:32.985Z,10.13
2022-11-13T15:34:18.587Z,10.53
2022-11-13T15:37:11.864Z,11.15
2022-11-13T15:39:57.870Z,10.82
2022-11-13T15:42:44.215Z,10.38
2022-11-13T15:45:30.344Z,10.73
2022-11-13T15:48:16.115Z,11.30
2022-11-13T15:51:02.047Z,10.85
2022-11-13T15:53:52.112Z,10.98
2022-11-13T15:56:37.930Z,10.70
2022-11-13T15:59:23.682Z,11.65
2022-11-13T16:02:09.852Z,11.53
2022-11-13T16:04:56.982Z,10.75
2022-11-13T16:07:43.636Z,11.00
2022-11-13T16:10:30.579Z,10.70
2022-11-13T16:13:16.509Z,10.93
2022-11-13T16:16:02.336Z,11.87
2022-11-13T16:18:50.183Z,10.82
2022-11-13T16:21:35.916Z,11.13
2022-11-13T16:24:24.197Z,11.00
2022-11-13T16:27:14.777Z,11.05
2022-11-13T16:30:06.391Z,11.83
2022-11-13T16:32:52.937Z,11.30
2022-11-13T16:35:39.871Z,11.70
2022-11-13T16:38:25.357Z,11.75
2022-11-13T16:41:12.272Z,12.38
2022-11-13T16:43:59.508Z,11.30
2022-11-13T16:46:45.628Z,12.35
2022-11-13T16:49:31.210Z,13.02
2022-11-13T16:52:17.512Z,12.13
2022-11-13T16:55:06.484Z,12.73
2022-11-13T16:57:52.785Z,11.80
2022-11-13T17:00:40.155Z,14.07
2022-11-13T17:03:26.060Z,13.45
2022-11-13T17:06:21.740Z,14.30
2022-11-13T17:09:07.217Z,14.60
2022-11-13T17:11:53.154Z,13.87
2022-11-13T17:14:39.266Z,14.75
2022-11-13T17:17:26.069Z,13.27
2022-11-13T17:20:13.511Z,14.40
2022-11-13T17:22:59.530Z,14.57
2022-11-13T17:25:45.461Z,14.50
2022-11-13T17:28:31.612Z,15.30
2022-11-13T17:31:17.706Z,15.57
2022-11-13T17:34:04.939Z,14.68
2022-11-13T17:36:51.060Z,15.20
2022-11-13T17:39:36.523Z,15.23
2022-11-13T17:42:22.523Z,14.95
2022-11-13T17:45:09.342Z,15.73
2022-11-13T17:47:54.920Z,15.35
2022-11-13T17:50:42.265Z,16.65
2022-11-13T17:53:28.811Z,13.43
2022-11-13T17:56:15.886Z,14.40
2022-11-13T17:59:01.861Z,15.38
2022-11-13T18:01:47.869Z,15.90
2022-11-13T18:04:33.631Z,15.35
2022-11-13T18:07:21.029Z,13.77
2022-11-13T18:10:08.155Z,15.43
2022-11-13T18:12:54.061Z,15.85
2022-11-13T18:15:40.648Z,15.40
2022-11-13T18:18:26.425Z,14.32
2022-11-13T18:21:29.215Z,14.60
2022-11-13T18:24:19.293Z,14.82
2022-11-13T18:27:08.108Z,13.38
2022-11-13T18:29:53.999Z,13.68
2022-11-13T18:32:39.911Z,15.25
2022-11-13T18:35:25.782Z,15.10
2022-11-13T18:38:11.597Z,14.23
2022-11-13T18:41:03.602Z,15.00
2022-11-13T18:43:50.507Z,14.27
2022-11-13T18:46:36.157Z,14.18
2022-11-13T18:49:22.090Z,13.13
2022-11-13T18:52:08.080Z,14.80
2022-11-13T18:54:53.952Z,14.20
2022-11-13T18:57:41.174Z,13.98
2022-11-13T19:00:27.158Z,13.07
2022-11-13T19:03:12.941Z,13.00
2022-11-13T19:05:58.805Z,13.52
2022-11-13T19:08:45.533Z,14.07
2022-11-13T19:11:31.954Z,13.38
2022-11-13T19:14:19.151Z,12.73
2022-11-13T19:17:04.859Z,13.10
2022-11-13T19:19:50.666Z,13.43
2022-11-13T19:22:36.549Z,12.80
2022-11-13T19:25:22.513Z,12.65
2022-11-13T19:28:08.496Z,12.68
2022-11-13T19:30:56.044Z,12.60
2022-11-13T19:33:42.451Z,13.95
2022-11-13T19:36:30.331Z,13.05
2022-11-13T19:39:16.789Z,12.40
2022-11-13T19:42:03.091Z,13.45
2022-11-13T19:44:48.590Z,13.43
2022-11-13T19:47:35.849Z,13.32
2022-11-13T19:50:21.696Z,13.10
2022-11-13T19:53:07.622Z,13.77
2022-11-13T19:55:54.223Z,12.90
2022-11-13T19:58:42.970Z,13.10
2022-11-13T20:01:29.535Z,12.73
2022-11-13T20:04:16.467Z,12.65
2022-11-13T20:07:02.355Z,13.05
2022-11-13T20:09:48.137Z,12.70
2022-11-13T20:12:34.242Z,13.00
2022-11-13T20:15:20.131Z,12.73
2022-11-13T20:18:06.263Z,12.55
2022-11-13T20:20:55.108Z,12.90
2022-11-13T20:23:41.277Z,13.48
2022-11-13T20:26:27.762Z,13.00
2022-11-13T20:29:14.150Z,12.63
2022-11-13T20:32:00.372Z,12.93
2022-11-13T20:34:45.932Z,13.23
2022-11-13T20:37:33.836Z,13.20
2022-11-13T20:40:19.434Z,13.30
2022-11-13T20:43:05.332Z,12.35
2022-11-13T20:46:00.351Z,13.70
2022-11-13T20:48:46.701Z,13.38
2022-11-13T20:51:32.566Z,13.15
2022-11-13T20:54:19.781Z,14.37
2022-11-13T20:57:05.741Z,13.95
2022-11-13T20:59:51.566Z,14.05
2022-11-13T21:02:37.441Z,14.05
2022-11-13T21:05:23.364Z,14.35
2022-11-13T21:08:10.588Z,14.83
2022-11-13T21:10:58.891Z,14.07
2022-11-13T21:13:44.721Z,15.60
2022-11-13T21:16:31.391Z,14.65
2022-11-13T21:19:17.219Z,15.05
2022-11-13T21:22:03.068Z,15.37
2022-11-13T21:24:49.094Z,15.45
2022-11-13T21:27:36.068Z,15.05
2022-11-13T21:30:22.248Z,15.52
2022-11-13T21:33:07.754Z,15.25
2022-11-13T21:35:53.616Z,15.13
2022-11-13T21:38:40.156Z,15.23
2022-11-13T21:41:26.248Z,16.05
2022-11-13T21:44:13.508Z,16.05
2022-11-13T21:46:59.352Z,16.15
2022-11-13T21:49:45.276Z,16.03
2022-11-13T21:52:31.166Z,17.35
2022-11-13T21:55:16.964Z,17.83
2022-11-13T21:58:02.782Z,17.60
2022-11-13T22:00:49.858Z,18.58
2022-11-13T22:03:35.716Z,18.77
2022-11-13T22:06:23.824Z,17.90
2022-11-13T22:09:14.616Z,18.85
2022-11-13T22:12:00.535Z,19.60
2022-11-13T22:14:46.623Z,20.75
2022-11-13T22:17:33.780Z,20.67
2022-11-13T22:20:19.569Z,20.15
2022-11-13T22:23:05.803Z,21.05
2022-11-13T22:25:55.726Z,19.58
2022-11-13T22:28:45.298Z,17.70
2022-11-13T22:31:31.873Z,21.33
2022-11-13T22:34:19.324Z,20.33
2022-11-13T22:37:05.234Z,21.23
2022-11-13T22:39:51.070Z,23.30
2022-11-13T22:42:36.880Z,21.95
2022-11-13T22:45:24.037Z,21.93
2022-11-13T22:48:10.946Z,22.63
2022-11-13T22:51:02.359Z,22.48
2022-11-13T22:53:49.751Z,23.27
2022-11-13T22:56:36.585Z,22.95
2022-11-13T22:59:22.420Z,22.70
2022-11-13T23:02:08.309Z,22.58
2022-11-13T23:04:54.055Z,21.90
2022-11-13T23:07:41.202Z,23.08
2022-11-13T23:10:27.038Z,22.02
2022-11-13T23:13:12.871Z,23.27
2022-11-13T23:15:58.750Z,22.95
2022-11-13T23:18:45.260Z,23.73
2022-11-13T23:21:31.083Z,23.27
2022-11-13T23:24:17.997Z,18.65
2022-11-13T23:27:03.914Z,24.07
2022-11-13T23:29:50.387Z,22.98
2022-11-13T23:32:36.051Z,24.05
2022-11-13T23:35:21.924Z,22.38
2022-11-13T23:38:07.657Z,22.83
2022-11-13T23:40:55.452Z,24.40
2022-11-13T23:44:07.588Z,22.70
2022-11-13T23:46:47.117Z,23.38
2022-11-13T23:49:33.170Z,22.73
2022-11-13T23:52:18.982Z,24.05
2022-11-13T23:55:05.402Z,23.73
2022-11-13T23:57:57.650Z,24.27
